sensor_id;sensor_type;location;lat;lon;timestamp;P1;durP1;ratioP1;P2;durP2;ratioP2
39898;SDS011;25571;47.876;10.642;2023-04-03T00:01:05;5.88;;;4.22;;
39898;SDS011;25571;47.876;10.642;2023-04-03T00:03:31;5.18;;;4.40;;
39898;SDS011;25571;47.876;10.642;2023-04-03T00:05:57;5.20;;;4.40;;
39898;SDS011;25571;47.876;10.642;2023-04-03T00:08:22;6.25;;;4.80;;
39898;SDS011;25571;47.876;10.642;2023-04-03T00:10:48;5.20;;;4.65;;
39898;SDS011;25571;47.876;10.642;2023-04-03T00:13:14;5.75;;;4.97;;
39898;SDS011;25571;47.876;10.642;2023-04-03T00:15:40;4.72;;;4.18;;
39898;SDS011;25571;47.876;10.642;2023-04-03T00:18:06;4.53;;;4.10;;
39898;SDS011;25571;47.876;10.642;2023-04-03T00:20:32;5.35;;;4.45;;
39898;SDS011;25571;47.876;10.642;2023-04-03T00:22:58;5.25;;;4.25;;
39898;SDS011;25571;47.876;10.642;2023-04-03T00:25:25;5.60;;;5.00;;
39898;SDS011;25571;47.876;10.642;2023-04-03T00:27:51;5.93;;;4.72;;
39898;SDS011;25571;47.876;10.642;2023-04-03T00:30:17;4.65;;;3.97;;
39898;SDS011;25571;47.876;10.642;2023-04-03T00:32:44;6.20;;;4.22;;
39898;SDS011;25571;47.876;10.642;2023-04-03T00:35:12;4.72;;;4.20;;
39898;SDS011;25571;47.876;10.642;2023-04-03T00:37:40;5.18;;;4.45;;
39898;SDS011;25571;47.876;10.642;2023-04-03T00:40:06;6.60;;;3.90;;
39898;SDS011;25571;47.876;10.642;2023-04-03T00:42:33;5.28;;;4.30;;
39898;SDS011;25571;47.876;10.642;2023-04-03T00:47:26;4.68;;;4.10;;
39898;SDS011;25571;47.876;10.642;2023-04-03T00:49:52;5.10;;;4.60;;
39898;SDS011;25571;47.876;10.642;2023-04-03T00:52:19;5.45;;;4.82;;
39898;SDS011;25571;47.876;10.642;2023-04-03T00:54:47;5.40;;;4.45;;
39898;SDS011;25571;47.876;10.642;2023-04-03T00:57:15;4.97;;;4.35;;
39898;SDS011;25571;47.876;10.642;2023-04-03T00:59:44;6.00;;;4.72;;
39898;SDS011;25571;47.876;10.642;2023-04-03T01:02:14;5.90;;;5.20;;
39898;SDS011;25571;47.876;10.642;2023-04-03T01:04:41;5.28;;;4.78;;
39898;SDS011;25571;47.876;10.642;2023-04-03T01:07:09;7.28;;;5.40;;
39898;SDS011;25571;47.876;10.642;2023-04-03T01:09:39;19.73;;;12.38;;
39898;SDS011;25571;47.876;10.642;2023-04-03T01:12:39;16.17;;;10.80;;
39898;SDS011;25571;47.876;10.642;2023-04-03T01:15:00;37.35;;;23.98;;
39898;SDS011;25571;47.876;10.642;2023-04-03T01:22:39;17.23;;;10.68;;
39898;SDS011;25571;47.876;10.642;2023-04-03T01:25:26;16.63;;;9.27;;
39898;SDS011;25571;47.876;10.642;2023-04-03T01:27:52;18.05;;;12.07;;
39898;SDS011;25571;47.876;10.642;2023-04-03T01:30:18;18.33;;;11.88;;
39898;SDS011;25571;47.876;10.642;2023-04-03T01:32:45;14.00;;;9.85;;
39898;SDS011;25571;47.876;10.642;2023-04-03T01:35:11;16.15;;;13.98;;
39898;SDS011;25571;47.876;10.642;2023-04-03T01:37:37;12.85;;;10.73;;
39898;SDS011;25571;47.876;10.642;2023-04-03T01:40:03;28.88;;;17.55;;
39898;SDS011;25571;47.876;10.642;2023-04-03T01:42:29;41.15;;;24.77;;
39898;SDS011;25571;47.876;10.642;2023-04-03T01:44:54;21.35;;;14.63;;
39898;SDS011;25571;47.876;10.642;2023-04-03T01:47:20;19.73;;;13.00;;
39898;SDS011;25571;47.876;10.642;2023-04-03T01:49:46;12.52;;;9.70;;
39898;SDS011;25571;47.876;10.642;2023-04-03T01:52:12;8.20;;;7.40;;
39898;SDS011;25571;47.876;10.642;2023-04-03T01:54:37;7.00;;;6.30;;
39898;SDS011;25571;47.876;10.642;2023-04-03T01:57:03;9.70;;;8.70;;
39898;SDS011;25571;47.876;10.642;2023-04-03T01:59:28;8.70;;;7.03;;
39898;SDS011;25571;47.876;10.642;2023-04-03T02:01:54;7.68;;;6.50;;
39898;SDS011;25571;47.876;10.642;2023-04-03T02:04:20;7.75;;;6.85;;
39898;SDS011;25571;47.876;10.642;2023-04-03T02:06:46;7.53;;;6.20;;
39898;SDS011;25571;47.876;10.642;2023-04-03T02:09:11;8.50;;;6.20;;
39898;SDS011;25571;47.876;10.642;2023-04-03T02:11:37;8.18;;;7.38;;
39898;SDS011;25571;47.876;10.642;2023-04-03T02:14:02;7.93;;;6.70;;
39898;SDS011;25571;47.876;10.642;2023-04-03T02:16:28;7.03;;;5.85;;
39898;SDS011;25571;47.876;10.642;2023-04-03T02:18:54;7.10;;;6.40;;
39898;SDS011;25571;47.876;10.642;2023-04-03T02:21:19;7.85;;;6.30;;
39898;SDS011;25571;47.876;10.642;2023-04-03T02:23:45;9.35;;;6.90;;
39898;SDS011;25571;47.876;10.642;2023-04-03T02:26:11;7.40;;;5.78;;
39898;SDS011;25571;47.876;10.642;2023-04-03T02:28:38;8.30;;;7.43;;
39898;SDS011;25571;47.876;10.642;2023-04-03T02:31:05;26.55;;;23.67;;
39898;SDS011;25571;47.876;10.642;2023-04-03T02:33:31;54.20;;;49.15;;
39898;SDS011;25571;47.876;10.642;2023-04-03T02:35:57;26.05;;;23.90;;
39898;SDS011;25571;47.876;10.642;2023-04-03T02:38:24;15.63;;;13.30;;
39898;SDS011;25571;47.876;10.642;2023-04-03T02:40:50;11.43;;;10.32;;
39898;SDS011;25571;47.876;10.642;2023-04-03T02:43:16;9.40;;;8.60;;
39898;SDS011;25571;47.876;10.642;2023-04-03T02:45:42;8.50;;;7.70;;
39898;SDS011;25571;47.876;10.642;2023-04-03T02:48:08;7.18;;;6.57;;
39898;SDS011;25571;47.876;10.642;2023-04-03T02:50:33;9.55;;;7.25;;
39898;SDS011;25571;47.876;10.642;2023-04-03T02:52:59;7.63;;;6.22;;
39898;SDS011;25571;47.876;10.642;2023-04-03T02:55:25;9.52;;;7.22;;
39898;SDS011;25571;47.876;10.642;2023-04-03T02:57:51;8.50;;;6.70;;
39898;SDS011;25571;47.876;10.642;2023-04-03T03:00:16;9.80;;;7.10;;
39898;SDS011;25571;47.876;10.642;2023-04-03T03:02:42;9.50;;;7.30;;
39898;SDS011;25571;47.876;10.642;2023-04-03T03:05:08;8.98;;;6.50;;
39898;SDS011;25571;47.876;10.642;2023-04-03T03:07:33;7.65;;;6.65;;
39898;SDS011;25571;47.876;10.642;2023-04-03T03:09:59;6.57;;;5.88;;
39898;SDS011;25571;47.876;10.642;2023-04-03T03:12:25;7.85;;;6.80;;
39898;SDS011;25571;47.876;10.642;2023-04-03T03:14:50;6.80;;;6.00;;
39898;SDS011;25571;47.876;10.642;2023-04-03T03:17:16;7.68;;;5.90;;
39898;SDS011;25571;47.876;10.642;2023-04-03T03:19:42;6.13;;;5.30;;
39898;SDS011;25571;47.876;10.642;2023-04-03T03:22:08;6.32;;;5.30;;
39898;SDS011;25571;47.876;10.642;2023-04-03T03:24:34;6.13;;;5.53;;
39898;SDS011;25571;47.876;10.642;2023-04-03T03:26:59;6.70;;;5.13;;
39898;SDS011;25571;47.876;10.642;2023-04-03T03:29:25;6.53;;;5.30;;
39898;SDS011;25571;47.876;10.642;2023-04-03T03:31:51;6.15;;;5.15;;
39898;SDS011;25571;47.876;10.642;2023-04-03T03:34:16;6.15;;;5.25;;
39898;SDS011;25571;47.876;10.642;2023-04-03T03:36:42;6.57;;;4.35;;
39898;SDS011;25571;47.876;10.642;2023-04-03T03:39:07;5.88;;;4.20;;
39898;SDS011;25571;47.876;10.642;2023-04-03T03:41:33;6.07;;;4.28;;
39898;SDS011;25571;47.876;10.642;2023-04-03T03:43:58;6.47;;;4.35;;
39898;SDS011;25571;47.876;10.642;2023-04-03T03:46:24;5.78;;;4.45;;
39898;SDS011;25571;47.876;10.642;2023-04-03T03:48:50;4.35;;;3.53;;
39898;SDS011;25571;47.876;10.642;2023-04-03T03:51:15;3.85;;;3.38;;
39898;SDS011;25571;47.876;10.642;2023-04-03T03:53:41;5.35;;;3.83;;
39898;SDS011;25571;47.876;10.642;2023-04-03T03:56:07;3.33;;;3.03;;
39898;SDS011;25571;47.876;10.642;2023-04-03T03:58:33;4.80;;;3.40;;
39898;SDS011;25571;47.876;10.642;2023-04-03T04:01:02;3.50;;;3.17;;
39898;SDS011;25571;47.876;10.642;2023-04-03T04:03:30;5.90;;;3.80;;
39898;SDS011;25571;47.876;10.642;2023-04-03T04:05:56;4.43;;;3.30;;
39898;SDS011;25571;47.876;10.642;2023-04-03T04:08:21;3.30;;;3.00;;
39898;SDS011;25571;47.876;10.642;2023-04-03T04:10:47;4.28;;;2.83;;
39898;SDS011;25571;47.876;10.642;2023-04-03T04:13:13;3.78;;;3.10;;
39898;SDS011;25571;47.876;10.642;2023-04-03T04:15:39;3.38;;;3.08;;
39898;SDS011;25571;47.876;10.642;2023-04-03T04:18:05;3.83;;;2.90;;
39898;SDS011;25571;47.876;10.642;2023-04-03T04:20:30;3.20;;;2.90;;
39898;SDS011;25571;47.876;10.642;2023-04-03T04:22:56;3.25;;;2.75;;
39898;SDS011;25571;47.876;10.642;2023-04-03T04:25:22;3.47;;;2.72;;
39898;SDS011;25571;47.876;10.642;2023-04-03T04:27:47;3.38;;;2.85;;
39898;SDS011;25571;47.876;10.642;2023-04-03T04:30:13;4.20;;;3.10;;
39898;SDS011;25571;47.876;10.642;2023-04-03T04:32:38;3.40;;;2.80;;
39898;SDS011;25571;47.876;10.642;2023-04-03T04:35:04;3.35;;;2.83;;
39898;SDS011;25571;47.876;10.642;2023-04-03T04:37:30;5.25;;;3.08;;
39898;SDS011;25571;47.876;10.642;2023-04-03T04:39:56;3.95;;;3.08;;
39898;SDS011;25571;47.876;10.642;2023-04-03T04:42:21;3.97;;;3.05;;
39898;SDS011;25571;47.876;10.642;2023-04-03T04:44:47;4.03;;;2.95;;
39898;SDS011;25571;47.876;10.642;2023-04-03T04:47:13;3.83;;;3.15;;
39898;SDS011;25571;47.876;10.642;2023-04-03T04:49:38;3.70;;;3.08;;
39898;SDS011;25571;47.876;10.642;2023-04-03T04:52:04;3.25;;;2.75;;
39898;SDS011;25571;47.876;10.642;2023-04-03T04:54:30;3.38;;;3.08;;
39898;SDS011;25571;47.876;10.642;2023-04-03T04:56:55;3.20;;;2.90;;
39898;SDS011;25571;47.876;10.642;2023-04-03T04:59:21;3.63;;;3.28;;
39898;SDS011;25571;47.876;10.642;2023-04-03T05:01:47;3.13;;;2.78;;
39898;SDS011;25571;47.876;10.642;2023-04-03T05:04:12;3.58;;;2.92;;
39898;SDS011;25571;47.876;10.642;2023-04-03T05:06:38;4.50;;;3.58;;
39898;SDS011;25571;47.876;10.642;2023-04-03T05:09:04;3.63;;;3.30;;
39898;SDS011;25571;47.876;10.642;2023-04-03T05:11:30;3.80;;;3.35;;
39898;SDS011;25571;47.876;10.642;2023-04-03T05:13:55;3.40;;;3.10;;
39898;SDS011;25571;47.876;10.642;2023-04-03T05:16:21;4.10;;;3.67;;
39898;SDS011;25571;47.876;10.642;2023-04-03T05:18:46;4.80;;;3.40;;
39898;SDS011;25571;47.876;10.642;2023-04-03T05:21:12;5.70;;;3.97;;
39898;SDS011;25571;47.876;10.642;2023-04-03T05:23:38;4.55;;;4.15;;
39898;SDS011;25571;47.876;10.642;2023-04-03T05:26:04;3.83;;;3.45;;
39898;SDS011;25571;47.876;10.642;2023-04-03T05:28:29;4.25;;;3.60;;
39898;SDS011;25571;47.876;10.642;2023-04-03T05:30:58;4.72;;;4.22;;
39898;SDS011;25571;47.876;10.642;2023-04-03T05:33:24;4.50;;;4.10;;
39898;SDS011;25571;47.876;10.642;2023-04-03T05:35:51;5.13;;;4.28;;
39898;SDS011;25571;47.876;10.642;2023-04-03T05:38:17;5.55;;;4.72;;
39898;SDS011;25571;47.876;10.642;2023-04-03T05:40:43;5.05;;;4.55;;
39898;SDS011;25571;47.876;10.642;2023-04-03T05:43:08;6.30;;;4.78;;
39898;SDS011;25571;47.876;10.642;2023-04-03T05:45:34;5.85;;;4.72;;
39898;SDS011;25571;47.876;10.642;2023-04-03T05:48:00;4.72;;;3.95;;
39898;SDS011;25571;47.876;10.642;2023-04-03T05:50:25;5.35;;;4.80;;
39898;SDS011;25571;47.876;10.642;2023-04-03T05:52:51;6.53;;;4.97;;
39898;SDS011;25571;47.876;10.642;2023-04-03T05:55:20;5.55;;;5.03;;
39898;SDS011;25571;47.876;10.642;2023-04-03T05:57:45;5.18;;;4.68;;
39898;SDS011;25571;47.876;10.642;2023-04-03T06:00:15;7.65;;;5.15;;
39898;SDS011;25571;47.876;10.642;2023-04-03T06:02:41;5.78;;;4.97;;
39898;SDS011;25571;47.876;10.642;2023-04-03T06:05:07;5.57;;;5.07;;
39898;SDS011;25571;47.876;10.642;2023-04-03T06:07:34;5.00;;;4.50;;
39898;SDS011;25571;47.876;10.642;2023-04-03T06:10:00;5.70;;;4.55;;
39898;SDS011;25571;47.876;10.642;2023-04-03T06:12:26;5.72;;;5.00;;
39898;SDS011;25571;47.876;10.642;2023-04-03T06:14:54;6.55;;;5.47;;
39898;SDS011;25571;47.876;10.642;2023-04-03T06:17:20;7.25;;;5.47;;
39898;SDS011;25571;47.876;10.642;2023-04-03T06:19:46;6.38;;;5.35;;
39898;SDS011;25571;47.876;10.642;2023-04-03T06:22:12;7.68;;;5.32;;
39898;SDS011;25571;47.876;10.642;2023-04-03T06:24:38;6.50;;;5.90;;
39898;SDS011;25571;47.876;10.642;2023-04-03T06:27:03;8.30;;;5.68;;
39898;SDS011;25571;47.876;10.642;2023-04-03T06:29:29;7.13;;;5.45;;
39898;SDS011;25571;47.876;10.642;2023-04-03T06:31:55;6.20;;;5.40;;
39898;SDS011;25571;47.876;10.642;2023-04-03T06:34:21;7.60;;;5.88;;
39898;SDS011;25571;47.876;10.642;2023-04-03T06:36:47;6.50;;;5.80;;
39898;SDS011;25571;47.876;10.642;2023-04-03T06:39:14;8.73;;;6.10;;
39898;SDS011;25571;47.876;10.642;2023-04-03T06:41:42;6.32;;;5.18;;
39898;SDS011;25571;47.876;10.642;2023-04-03T06:44:08;6.82;;;5.57;;
39898;SDS011;25571;47.876;10.642;2023-04-03T06:46:36;7.95;;;5.75;;
39898;SDS011;25571;47.876;10.642;2023-04-03T06:49:03;7.70;;;6.38;;
39898;SDS011;25571;47.876;10.642;2023-04-03T06:51:29;6.35;;;5.45;;
39898;SDS011;25571;47.876;10.642;2023-04-03T06:53:56;6.20;;;5.32;;
39898;SDS011;25571;47.876;10.642;2023-04-03T06:56:23;5.80;;;5.03;;
39898;SDS011;25571;47.876;10.642;2023-04-03T06:58:50;7.38;;;5.60;;
39898;SDS011;25571;47.876;10.642;2023-04-03T07:01:17;7.07;;;5.18;;
39898;SDS011;25571;47.876;10.642;2023-04-03T07:03:44;5.75;;;5.15;;
39898;SDS011;25571;47.876;10.642;2023-04-03T07:06:11;6.03;;;5.10;;
39898;SDS011;25571;47.876;10.642;2023-04-03T07:08:38;5.22;;;4.38;;
39898;SDS011;25571;47.876;10.642;2023-04-03T07:11:04;5.63;;;4.88;;
39898;SDS011;25571;47.876;10.642;2023-04-03T07:13:31;5.97;;;4.82;;
39898;SDS011;25571;47.876;10.642;2023-04-03T07:15:57;4.40;;;3.95;;
39898;SDS011;25571;47.876;10.642;2023-04-03T07:18:23;4.43;;;4.03;;
39898;SDS011;25571;47.876;10.642;2023-04-03T07:20:48;5.90;;;4.78;;
39898;SDS011;25571;47.876;10.642;2023-04-03T07:23:15;5.50;;;3.92;;
39898;SDS011;25571;47.876;10.642;2023-04-03T07:25:47;5.65;;;5.15;;
39898;SDS011;25571;47.876;10.642;2023-04-03T07:28:15;6.80;;;5.60;;
39898;SDS011;25571;47.876;10.642;2023-04-03T07:30:42;8.00;;;4.70;;
39898;SDS011;25571;47.876;10.642;2023-04-03T07:33:08;6.57;;;4.40;;
39898;SDS011;25571;47.876;10.642;2023-04-03T07:35:34;8.18;;;5.78;;
39898;SDS011;25571;47.876;10.642;2023-04-03T07:37:59;7.60;;;4.63;;
39898;SDS011;25571;47.876;10.642;2023-04-03T07:40:26;7.28;;;5.63;;
39898;SDS011;25571;47.876;10.642;2023-04-03T07:42:51;5.15;;;4.57;;
39898;SDS011;25571;47.876;10.642;2023-04-03T07:45:17;5.82;;;4.35;;
39898;SDS011;25571;47.876;10.642;2023-04-03T07:47:43;5.90;;;5.18;;
39898;SDS011;25571;47.876;10.642;2023-04-03T07:50:09;5.57;;;4.57;;
39898;SDS011;25571;47.876;10.642;2023-04-03T07:52:35;4.95;;;4.22;;
39898;SDS011;25571;47.876;10.642;2023-04-03T07:55:01;4.07;;;3.67;;
39898;SDS011;25571;47.876;10.642;2023-04-03T07:57:26;4.25;;;3.85;;
39898;SDS011;25571;47.876;10.642;2023-04-03T07:59:52;5.25;;;3.97;;
39898;SDS011;25571;47.876;10.642;2023-04-03T08:02:18;5.25;;;4.32;;
39898;SDS011;25571;47.876;10.642;2023-04-03T08:04:43;4.82;;;4.03;;
39898;SDS011;25571;47.876;10.642;2023-04-03T08:07:09;4.38;;;3.92;;
39898;SDS011;25571;47.876;10.642;2023-04-03T08:09:35;4.57;;;3.90;;
39898;SDS011;25571;47.876;10.642;2023-04-03T08:12:00;4.70;;;4.10;;
39898;SDS011;25571;47.876;10.642;2023-04-03T08:14:26;5.00;;;4.25;;
39898;SDS011;25571;47.876;10.642;2023-04-03T08:16:51;5.47;;;3.95;;
39898;SDS011;25571;47.876;10.642;2023-04-03T08:19:17;5.15;;;3.70;;
39898;SDS011;25571;47.876;10.642;2023-04-03T08:21:43;6.80;;;4.38;;
39898;SDS011;25571;47.876;10.642;2023-04-03T08:24:10;5.38;;;4.10;;
39898;SDS011;25571;47.876;10.642;2023-04-03T08:26:35;5.55;;;3.97;;
39898;SDS011;25571;47.876;10.642;2023-04-03T08:29:01;4.93;;;3.88;;
39898;SDS011;25571;47.876;10.642;2023-04-03T08:31:27;4.68;;;4.20;;
39898;SDS011;25571;47.876;10.642;2023-04-03T08:33:53;3.35;;;3.05;;
39898;SDS011;25571;47.876;10.642;2023-04-03T08:36:20;4.22;;;3.75;;
39898;SDS011;25571;47.876;10.642;2023-04-03T08:38:46;4.00;;;3.63;;
39898;SDS011;25571;47.876;10.642;2023-04-03T08:44:43;6.85;;;3.88;;
39898;SDS011;25571;47.876;10.642;2023-04-03T08:50:04;4.93;;;3.57;;
39898;SDS011;25571;47.876;10.642;2023-04-03T08:52:39;6.28;;;4.05;;
39898;SDS011;25571;47.876;10.642;2023-04-03T08:55:30;5.63;;;3.92;;
39898;SDS011;25571;47.876;10.642;2023-04-03T08:58:05;4.55;;;3.70;;
39898;SDS011;25571;47.876;10.642;2023-04-03T09:03:38;4.53;;;3.70;;
39898;SDS011;25571;47.876;10.642;2023-04-03T09:06:22;3.92;;;3.55;;
39898;SDS011;25571;47.876;10.642;2023-04-03T09:14:38;4.10;;;3.20;;
39898;SDS011;25571;47.876;10.642;2023-04-03T09:17:15;4.47;;;2.70;;
39898;SDS011;25571;47.876;10.642;2023-04-03T09:22:38;4.47;;;3.08;;
39898;SDS011;25571;47.876;10.642;2023-04-03T09:25:13;5.15;;;3.53;;
39898;SDS011;25571;47.876;10.642;2023-04-03T09:27:44;3.35;;;3.05;;
39898;SDS011;25571;47.876;10.642;2023-04-03T09:30:14;3.55;;;2.90;;
39898;SDS011;25571;47.876;10.642;2023-04-03T09:32:41;4.03;;;3.20;;
39898;SDS011;25571;47.876;10.642;2023-04-03T09:40:28;5.18;;;3.38;;
39898;SDS011;25571;47.876;10.642;2023-04-03T09:43:40;4.05;;;3.33;;
39898;SDS011;25571;47.876;10.642;2023-04-03T09:45:48;3.75;;;3.45;;
39898;SDS011;25571;47.876;10.642;2023-04-03T09:48:23;4.22;;;3.13;;
39898;SDS011;25571;47.876;10.642;2023-04-03T09:53:28;4.20;;;3.00;;
39898;SDS011;25571;47.876;10.642;2023-04-03T09:59:06;3.58;;;3.22;;
39898;SDS011;25571;47.876;10.642;2023-04-03T10:01:38;3.83;;;3.00;;
39898;SDS011;25571;47.876;10.642;2023-04-03T10:04:10;4.05;;;3.05;;
39898;SDS011;25571;47.876;10.642;2023-04-03T10:06:38;3.70;;;2.90;;
39898;SDS011;25571;47.876;10.642;2023-04-03T10:12:03;4.07;;;3.10;;
39898;SDS011;25571;47.876;10.642;2023-04-03T10:14:39;3.65;;;2.50;;
39898;SDS011;25571;47.876;10.642;2023-04-03T10:28:19;3.20;;;2.90;;
39898;SDS011;25571;47.876;10.642;2023-04-03T10:33:40;3.83;;;3.40;;
39898;SDS011;25571;47.876;10.642;2023-04-03T10:39:15;3.78;;;3.40;;
39898;SDS011;25571;47.876;10.642;2023-04-03T10:47:28;3.58;;;3.03;;
39898;SDS011;25571;47.876;10.642;2023-04-03T10:53:02;3.50;;;3.17;;
39898;SDS011;25571;47.876;10.642;2023-04-03T10:55:51;3.03;;;2.63;;
39898;SDS011;25571;47.876;10.642;2023-04-03T10:58:33;5.18;;;3.33;;
39898;SDS011;25571;47.876;10.642;2023-04-03T11:01:13;3.30;;;2.60;;
39898;SDS011;25571;47.876;10.642;2023-04-03T11:03:47;6.47;;;3.58;;
39898;SDS011;25571;47.876;10.642;2023-04-03T11:06:18;4.18;;;2.97;;
39898;SDS011;25571;47.876;10.642;2023-04-03T11:11:31;3.40;;;3.05;;
39898;SDS011;25571;47.876;10.642;2023-04-03T11:14:05;3.67;;;3.05;;
39898;SDS011;25571;47.876;10.642;2023-04-03T11:16:59;3.47;;;2.90;;
39898;SDS011;25571;47.876;10.642;2023-04-03T11:22:02;5.05;;;3.22;;
39898;SDS011;25571;47.876;10.642;2023-04-03T11:25:36;5.32;;;3.65;;
39898;SDS011;25571;47.876;10.642;2023-04-03T11:27:40;4.47;;;2.72;;
39898;SDS011;25571;47.876;10.642;2023-04-03T11:30:18;3.53;;;3.00;;
39898;SDS011;25571;47.876;10.642;2023-04-03T11:33:02;3.50;;;3.20;;
39898;SDS011;25571;47.876;10.642;2023-04-03T11:35:50;3.17;;;2.78;;
39898;SDS011;25571;47.876;10.642;2023-04-03T11:38:25;4.07;;;2.97;;
39898;SDS011;25571;47.876;10.642;2023-04-03T11:40:55;3.63;;;2.95;;
39898;SDS011;25571;47.876;10.642;2023-04-03T11:45:52;4.40;;;3.28;;
39898;SDS011;25571;47.876;10.642;2023-04-03T11:51:01;4.25;;;3.25;;
39898;SDS011;25571;47.876;10.642;2023-04-03T11:53:43;3.40;;;2.90;;
39898;SDS011;25571;47.876;10.642;2023-04-03T12:01:43;6.30;;;3.42;;
39898;SDS011;25571;47.876;10.642;2023-04-03T12:04:10;4.35;;;2.90;;
39898;SDS011;25571;47.876;10.642;2023-04-03T12:09:21;4.45;;;2.80;;
39898;SDS011;25571;47.876;10.642;2023-04-03T12:11:59;4.60;;;3.00;;
39898;SDS011;25571;47.876;10.642;2023-04-03T12:14:26;4.03;;;3.40;;
39898;SDS011;25571;47.876;10.642;2023-04-03T12:16:54;5.22;;;3.40;;
39898;SDS011;25571;47.876;10.642;2023-04-03T12:22:13;4.50;;;3.38;;
39898;SDS011;25571;47.876;10.642;2023-04-03T12:24:50;6.45;;;3.42;;
39898;SDS011;25571;47.876;10.642;2023-04-03T12:35:37;6.18;;;4.00;;
39898;SDS011;25571;47.876;10.642;2023-04-03T12:46:39;10.88;;;5.43;;
39898;SDS011;25571;47.876;10.642;2023-04-03T12:49:14;7.05;;;4.38;;
39898;SDS011;25571;47.876;10.642;2023-04-03T12:51:56;4.70;;;3.22;;
39898;SDS011;25571;47.876;10.642;2023-04-03T12:54:37;4.10;;;2.83;;
39898;SDS011;25571;47.876;10.642;2023-04-03T12:57:16;5.03;;;3.28;;
39898;SDS011;25571;47.876;10.642;2023-04-03T12:59:52;4.88;;;3.28;;
39898;SDS011;25571;47.876;10.642;2023-04-03T13:02:28;3.55;;;3.15;;
39898;SDS011;25571;47.876;10.642;2023-04-03T13:04:57;4.70;;;3.33;;
39898;SDS011;25571;47.876;10.642;2023-04-03T13:07:25;4.45;;;3.00;;
39898;SDS011;25571;47.876;10.642;2023-04-03T13:12:33;3.20;;;2.88;;
39898;SDS011;25571;47.876;10.642;2023-04-03T13:15:19;5.75;;;3.05;;
39898;SDS011;25571;47.876;10.642;2023-04-03T13:18:04;4.53;;;2.90;;
39898;SDS011;25571;47.876;10.642;2023-04-03T13:20:31;3.67;;;2.88;;
39898;SDS011;25571;47.876;10.642;2023-04-03T13:23:07;3.13;;;2.80;;
39898;SDS011;25571;47.876;10.642;2023-04-03T13:25:40;3.10;;;2.45;;
39898;SDS011;25571;47.876;10.642;2023-04-03T13:28:12;5.15;;;3.70;;
39898;SDS011;25571;47.876;10.642;2023-04-03T13:30:49;4.25;;;2.78;;
39898;SDS011;25571;47.876;10.642;2023-04-03T13:33:23;5.28;;;3.17;;
39898;SDS011;25571;47.876;10.642;2023-04-03T13:39:06;4.32;;;3.15;;
39898;SDS011;25571;47.876;10.642;2023-04-03T13:41:53;3.45;;;2.20;;
39898;SDS011;25571;47.876;10.642;2023-04-03T13:46:46;3.95;;;2.70;;
39898;SDS011;25571;47.876;10.642;2023-04-03T13:51:52;3.60;;;2.75;;
39898;SDS011;25571;47.876;10.642;2023-04-03T13:54:28;2.83;;;2.42;;
39898;SDS011;25571;47.876;10.642;2023-04-03T13:56:55;3.30;;;2.50;;
39898;SDS011;25571;47.876;10.642;2023-04-03T13:59:32;4.27;;;2.87;;
39898;SDS011;25571;47.876;10.642;2023-04-03T14:04:45;3.30;;;3.00;;
39898;SDS011;25571;47.876;10.642;2023-04-03T14:07:22;4.20;;;2.83;;
39898;SDS011;25571;47.876;10.642;2023-04-03T14:09:49;4.97;;;3.53;;
39898;SDS011;25571;47.876;10.642;2023-04-03T14:12:16;2.95;;;2.58;;
39898;SDS011;25571;47.876;10.642;2023-04-03T14:14:46;5.70;;;3.30;;
39898;SDS011;25571;47.876;10.642;2023-04-03T14:17:19;4.07;;;3.10;;
39898;SDS011;25571;47.876;10.642;2023-04-03T14:19:47;5.53;;;3.35;;
39898;SDS011;25571;47.876;10.642;2023-04-03T14:22:17;5.25;;;3.42;;
39898;SDS011;25571;47.876;10.642;2023-04-03T14:24:47;6.85;;;3.75;;
39898;SDS011;25571;47.876;10.642;2023-04-03T14:27:35;4.35;;;3.05;;
39898;SDS011;25571;47.876;10.642;2023-04-03T14:30:07;4.57;;;3.28;;
39898;SDS011;25571;47.876;10.642;2023-04-03T14:32:37;5.80;;;3.85;;
39898;SDS011;25571;47.876;10.642;2023-04-03T14:35:03;5.20;;;3.28;;
39898;SDS011;25571;47.876;10.642;2023-04-03T14:37:30;3.25;;;2.65;;
39898;SDS011;25571;47.876;10.642;2023-04-03T14:39:56;4.72;;;2.58;;
39898;SDS011;25571;47.876;10.642;2023-04-03T14:42:25;3.08;;;2.40;;
39898;SDS011;25571;47.876;10.642;2023-04-03T14:44:53;3.70;;;2.50;;
39898;SDS011;25571;47.876;10.642;2023-04-03T14:47:19;3.45;;;2.60;;
39898;SDS011;25571;47.876;10.642;2023-04-03T14:49:48;3.25;;;2.80;;
39898;SDS011;25571;47.876;10.642;2023-04-03T14:52:19;2.15;;;1.90;;
39898;SDS011;25571;47.876;10.642;2023-04-03T14:54:52;3.37;;;2.60;;
39898;SDS011;25571;47.876;10.642;2023-04-03T14:57:19;2.50;;;2.10;;
39898;SDS011;25571;47.876;10.642;2023-04-03T14:59:49;2.85;;;2.38;;
39898;SDS011;25571;47.876;10.642;2023-04-03T15:04:57;3.97;;;2.70;;
39898;SDS011;25571;47.876;10.642;2023-04-03T15:07:24;2.30;;;2.10;;
39898;SDS011;25571;47.876;10.642;2023-04-03T15:09:52;4.20;;;2.60;;
39898;SDS011;25571;47.876;10.642;2023-04-03T15:12:18;3.67;;;2.92;;
39898;SDS011;25571;47.876;10.642;2023-04-03T15:14:43;6.70;;;2.65;;
39898;SDS011;25571;47.876;10.642;2023-04-03T15:17:16;2.33;;;2.00;;
39898;SDS011;25571;47.876;10.642;2023-04-03T15:19:44;3.15;;;2.42;;
39898;SDS011;25571;47.876;10.642;2023-04-03T15:22:17;2.90;;;2.33;;
39898;SDS011;25571;47.876;10.642;2023-04-03T15:24:44;3.22;;;2.30;;
39898;SDS011;25571;47.876;10.642;2023-04-03T15:27:10;2.67;;;2.28;;
39898;SDS011;25571;47.876;10.642;2023-04-03T15:29:38;3.85;;;2.40;;
39898;SDS011;25571;47.876;10.642;2023-04-03T15:32:06;2.28;;;1.73;;
39898;SDS011;25571;47.876;10.642;2023-04-03T15:34:32;4.00;;;2.15;;
39898;SDS011;25571;47.876;10.642;2023-04-03T15:36:57;3.28;;;2.50;;
39898;SDS011;25571;47.876;10.642;2023-04-03T15:39:24;2.72;;;2.00;;
39898;SDS011;25571;47.876;10.642;2023-04-03T15:41:50;5.15;;;2.33;;
39898;SDS011;25571;47.876;10.642;2023-04-03T15:44:17;2.80;;;1.80;;
39898;SDS011;25571;47.876;10.642;2023-04-03T15:46:43;4.15;;;2.20;;
39898;SDS011;25571;47.876;10.642;2023-04-03T15:49:10;2.17;;;1.80;;
39898;SDS011;25571;47.876;10.642;2023-04-03T15:51:36;2.78;;;2.10;;
39898;SDS011;25571;47.876;10.642;2023-04-03T15:54:02;2.10;;;1.90;;
39898;SDS011;25571;47.876;10.642;2023-04-03T15:56:27;2.25;;;2.00;;
39898;SDS011;25571;47.876;10.642;2023-04-03T15:58:53;3.60;;;1.70;;
39898;SDS011;25571;47.876;10.642;2023-04-03T16:01:19;3.75;;;2.20;;
39898;SDS011;25571;47.876;10.642;2023-04-03T16:03:44;4.28;;;2.97;;
39898;SDS011;25571;47.876;10.642;2023-04-03T16:06:13;4.13;;;2.75;;
39898;SDS011;25571;47.876;10.642;2023-04-03T16:08:40;5.47;;;2.50;;
39898;SDS011;25571;47.876;10.642;2023-04-03T16:11:06;5.68;;;3.58;;
39898;SDS011;25571;47.876;10.642;2023-04-03T16:13:32;3.58;;;2.85;;
39898;SDS011;25571;47.876;10.642;2023-04-03T16:15:58;3.85;;;2.70;;
39898;SDS011;25571;47.876;10.642;2023-04-03T16:18:25;3.78;;;2.92;;
39898;SDS011;25571;47.876;10.642;2023-04-03T16:20:51;3.70;;;2.50;;
39898;SDS011;25571;47.876;10.642;2023-04-03T16:23:17;3.88;;;2.45;;
39898;SDS011;25571;47.876;10.642;2023-04-03T16:25:43;3.45;;;2.35;;
39898;SDS011;25571;47.876;10.642;2023-04-03T16:28:11;6.03;;;2.63;;
39898;SDS011;25571;47.876;10.642;2023-04-03T16:30:37;3.25;;;2.28;;
39898;SDS011;25571;47.876;10.642;2023-04-03T16:33:08;3.83;;;2.33;;
39898;SDS011;25571;47.876;10.642;2023-04-03T16:35:35;2.75;;;2.22;;
39898;SDS011;25571;47.876;10.642;2023-04-03T16:38:00;2.97;;;2.28;;
39898;SDS011;25571;47.876;10.642;2023-04-03T16:40:26;1.65;;;1.55;;